Time;durP1;ratioP1;P1;durP2;ratioP2;P2;SDS_P1;SDS_P2;PMS_P1;PMS_P2;Temp;Humidity;BMP_temperature;BMP_pressure;BME280_temperature;BME280_humidity;BME280_pressure;Samples;Min_cycle;Max_cycle;Signal;HPM_P1;HPM_P2
2021/12/26 00:00:31;;;;;;;23.35;13.55;;;;;;;-15.43;84.04;98439.84;5072940;28;20040;-82
2021/12/26 00:02:57;;;;;;;23.55;13.43;;;;;;;-15.38;84.04;98448.03;5087662;28;20089;-82
2021/12/26 00:05:24;;;;;;;21.45;12.68;;;;;;;-15.36;83.75;98454.78;5064874;28;20537;-82
2021/12/26 00:07:50;;;;;;;22.65;13.02;;;;;;;-15.37;84.38;98449.69;5067711;28;20119;-82
2021/12/26 00:10:18;;;;;;;19.65;11.88;;;;;;;-15.36;84.40;98449.50;5078937;28;20494;-82
2021/12/26 00:12:43;;;;;;;19.15;11.55;;;;;;;-15.37;84.33;98454.94;5072099;28;20032;-81
2021/12/26 00:15:09;;;;;;;18.35;11.23;;;;;;;-15.37;84.34;98460.19;5071968;28;20179;-82
2021/12/26 00:17:35;;;;;;;28.90;10.88;;;;;;;-15.37;84.50;98454.94;5068945;28;20459;-81
2021/12/26 00:20:01;;;;;;;16.35;10.20;;;;;;;-15.40;84.62;98456.09;5033014;28;20038;-81
2021/12/26 00:22:26;;;;;;;15.07;9.18;;;;;;;-15.48;83.96;98460.56;5037701;28;20392;-81
2021/12/26 00:24:52;;;;;;;14.95;8.95;;;;;;;-15.55;84.45;98461.25;5035619;28;20411;-81
2021/12/26 00:27:19;;;;;;;13.02;8.43;;;;;;;-15.59;83.80;98453.91;5029975;28;20037;-80
2021/12/26 00:29:46;;;;;;;13.20;8.60;;;;;;;-15.61;84.11;98459.34;5050020;28;20047;-80
2021/12/26 00:32:12;;;;;;;11.98;7.93;;;;;;;-15.66;83.53;98453.72;5043015;28;20128;-81
2021/12/26 00:34:38;;;;;;;12.60;7.20;;;;;;;-15.65;83.16;98454.56;5030652;28;20124;-81
2021/12/26 00:37:05;;;;;;;12.20;7.80;;;;;;;-15.63;83.56;98442.88;5014400;28;20107;-81
2021/12/26 00:39:31;;;;;;;12.55;7.22;;;;;;;-15.61;83.17;98442.75;5032799;28;20045;-81
2021/12/26 00:41:57;;;;;;;10.05;6.70;;;;;;;-15.60;83.60;98441.75;5031730;28;20649;-82
2021/12/26 00:44:22;;;;;;;11.50;6.65;;;;;;;-15.59;83.31;98446.84;5014216;28;20072;-81
2021/12/26 00:46:50;;;;;;;13.85;7.30;;;;;;;-15.59;83.48;98449.47;5030643;28;20056;-81
2021/12/26 00:49:15;;;;;;;12.50;7.35;;;;;;;-15.57;83.50;98460.59;5047026;28;20041;-82
2021/12/26 00:51:41;;;;;;;12.32;7.40;;;;;;;-15.55;83.40;98458.63;5032449;28;20087;-82
2021/12/26 00:54:07;;;;;;;10.13;6.50;;;;;;;-15.57;83.71;98457.16;5043952;28;20033;-81
2021/12/26 00:56:32;;;;;;;11.40;6.20;;;;;;;-15.57;83.39;98463.22;5029836;28;20377;-81
2021/12/26 00:58:58;;;;;;;11.57;5.93;;;;;;;-15.49;83.80;98465.00;5046830;28;20458;-82
2021/12/26 01:01:23;;;;;;;10.77;5.68;;;;;;;-15.49;83.88;98464.19;5042397;28;20048;-82
2021/12/26 01:03:49;;;;;;;10.65;5.68;;;;;;;-15.50;83.63;98459.91;5034285;28;20038;-83
2021/12/26 01:06:15;;;;;;;9.52;5.25;;;;;;;-15.48;83.67;98463.19;5047802;28;20136;-82
2021/12/26 01:08:43;;;;;;;8.43;5.65;;;;;;;-15.50;83.52;98452.03;5047018;28;20526;-81
2021/12/26 01:11:41;;;;;;;10.52;5.70;;;;;;;-15.59;83.50;98464.41;5033390;28;20138;-81
2021/12/26 01:14:12;;;;;;;8.00;4.95;;;;;;;-15.64;83.74;98466.72;5034784;28;20038;-83
2021/12/26 01:17:14;;;;;;;8.70;5.37;;;;;;;-15.72;83.79;98472.00;5036757;28;20132;-82
2021/12/26 01:19:57;;;;;;;9.30;6.03;;;;;;;-15.78;83.77;98473.50;5058069;28;20523;-82
2021/12/26 01:22:24;;;;;;;10.48;5.10;;;;;;;-15.85;83.64;98472.50;5059052;28;20128;-82
2021/12/26 01:25:01;;;;;;;8.27;5.35;;;;;;;-15.96;83.74;98478.94;5066114;28;20052;-81
2021/12/26 01:27:27;;;;;;;8.13;5.40;;;;;;;-16.03;83.63;98483.19;5049109;28;20469;-81
2021/12/26 01:29:53;;;;;;;10.00;5.88;;;;;;;-16.11;83.86;98491.09;5050969;28;20095;-81
2021/12/26 01:32:19;;;;;;;10.27;5.88;;;;;;;-16.26;83.38;98487.47;5060589;28;20055;-81
2021/12/26 01:35:00;;;;;;;11.68;6.22;;;;;;;-16.37;83.65;98498.28;5054120;28;20037;-82
2021/12/26 01:37:46;;;;;;;11.85;6.72;;;;;;;-16.47;83.60;98504.53;5036119;28;20053;-83
2021/12/26 01:40:34;;;;;;;12.70;7.05;;;;;;;-16.55;83.86;98501.06;5052184;28;20089;-82
2021/12/26 01:43:11;;;;;;;10.68;6.10;;;;;;;-16.65;83.80;98508.28;5049221;28;20041;-82
2021/12/26 01:45:53;;;;;;;11.30;6.72;;;;;;;-16.73;83.60;98514.34;5051676;28;20032;-82
2021/12/26 01:48:21;;;;;;;14.32;7.63;;;;;;;-16.79;83.75;98523.69;5071365;28;20093;-82
2021/12/26 01:50:49;;;;;;;13.00;7.15;;;;;;;-16.84;83.74;98525.13;5053528;28;20045;-82
2021/12/26 01:53:16;;;;;;;14.93;8.40;;;;;;;-16.89;83.48;98528.22;5041514;28;20044;-83
2021/12/26 01:55:45;;;;;;;12.73;7.95;;;;;;;-16.96;83.16;98536.91;5041444;28;20043;-83
2021/12/26 01:58:19;;;;;;;16.85;8.80;;;;;;;-17.04;83.89;98535.06;5075061;28;20044;-82
2021/12/26 02:00:49;;;;;;;17.13;9.55;;;;;;;-17.10;83.64;98533.88;5061301;28;20036;-83
2021/12/26 02:03:15;;;;;;;;;;;;;;;-17.16;83.47;98536.34;5053423;28;20037;-83
2021/12/26 02:05:42;;;;;;;16.92;9.45;;;;;;;-17.23;83.24;98557.09;5065260;28;19921;-83
2021/12/26 02:08:10;;;;;;;16.30;9.38;;;;;;;-17.30;83.17;98550.03;5057791;28;20044;-83
2021/12/26 02:10:36;;;;;;;19.38;10.65;;;;;;;-17.37;83.37;98552.44;5068266;28;20082;-84
2021/12/26 02:13:02;;;;;;;17.95;10.23;;;;;;;-17.41;83.32;98559.78;5058426;28;20037;-84
2021/12/26 02:15:28;;;;;;;16.23;9.75;;;;;;;-17.46;83.46;98569.91;5037071;28;20037;-84
2021/12/26 02:18:05;;;;;;;19.25;9.82;;;;;;;-17.51;83.07;98564.31;5053316;28;20048;-84
2021/12/26 02:20:46;;;;;;;16.27;10.33;;;;;;;-17.55;83.52;98565.59;5069431;28;20056;-83
2021/12/26 02:23:25;;;;;;;15.07;8.98;;;;;;;-17.60;83.48;98564.41;5056721;28;20344;-83
2021/12/26 02:28:25;;;;;;;17.45;8.85;;;;;;;-17.71;83.37;98584.66;5052963;28;20041;-82
2021/12/26 02:30:52;;;;;;;16.63;8.70;;;;;;;-17.76;83.32;98580.88;5055976;28;20112;-82
2021/12/26 02:33:20;;;;;;;18.70;8.45;;;;;;;-17.81;83.67;98593.59;5072416;28;20047;-83
2021/12/26 02:35:47;;;;;;;16.55;9.15;;;;;;;-17.87;83.32;98595.03;5053026;28;20040;-83
2021/12/26 02:38:14;;;;;;;15.70;8.80;;;;;;;-17.92;82.81;98596.44;5052485;28;20069;-82
2021/12/26 02:40:41;;;;;;;19.27;9.38;;;;;;;-18.00;83.24;98592.81;5057707;28;20663;-82
2021/12/26 02:43:07;;;;;;;18.40;10.35;;;;;;;-18.07;82.86;98596.97;5058045;28;20047;-82
2021/12/26 02:45:33;;;;;;;19.80;10.10;;;;;;;-18.13;83.01;98600.19;5052846;28;20037;-82
2021/12/26 02:48:00;;;;;;;19.65;10.05;;;;;;;-18.17;82.88;98614.56;5068841;28;20436;-83
2021/12/26 02:50:28;;;;;;;17.60;9.23;;;;;;;-18.19;83.12;98618.31;5053264;28;20075;-83
2021/12/26 02:52:56;;;;;;;17.60;8.98;;;;;;;-18.21;83.29;98622.88;5070326;28;20040;-81
2021/12/26 02:55:21;;;;;;;18.67;8.85;;;;;;;-18.25;83.03;98619.72;5052698;28;20032;-82
2021/12/26 02:57:54;;;;;;;19.77;10.55;;;;;;;-18.35;83.20;98629.44;5052396;28;20044;-83
2021/12/26 03:00:22;;;;;;;19.33;9.27;;;;;;;-18.41;83.02;98627.38;5068940;28;20052;-83
2021/12/26 03:02:50;;;;;;;22.00;11.43;;;;;;;-18.45;83.25;98626.84;5053409;28;20090;-83
2021/12/26 03:05:17;;;;;;;22.77;10.57;;;;;;;-18.48;82.97;98631.56;5069347;28;20071;-84
2021/12/26 03:07:43;;;;;;;21.83;11.52;;;;;;;-18.52;83.14;98620.59;5035489;28;20036;-83
2021/12/26 03:10:16;;;;;;;23.60;11.65;;;;;;;-18.54;82.98;98626.94;5052187;28;20295;-83
2021/12/26 03:12:42;;;;;;;23.05;11.02;;;;;;;-18.59;83.28;98622.13;5055691;28;20028;-83
2021/12/26 03:15:10;;;;;;;20.88;11.13;;;;;;;-18.63;82.91;98633.88;5035254;28;20330;-83
2021/12/26 03:17:37;;;;;;;21.27;10.40;;;;;;;-18.65;83.11;98646.28;5047940;28;20045;-83
2021/12/26 03:20:17;;;;;;;20.50;10.23;;;;;;;-18.69;82.94;98650.16;5031257;28;20416;-84
2021/12/26 03:22:45;;;;;;;19.08;10.02;;;;;;;-18.73;83.16;98659.28;5032279;28;20034;-83
2021/12/26 03:25:17;;;;;;;17.15;9.57;;;;;;;-18.73;83.01;98659.28;5015702;28;20072;-83
2021/12/26 03:27:43;;;;;;;17.35;8.93;;;;;;;-18.77;82.92;98663.94;5027001;28;20519;-83
2021/12/26 03:30:11;;;;;;;19.00;9.27;;;;;;;-18.87;82.90;98664.97;5038638;28;20049;-83
2021/12/26 03:32:39;;;;;;;20.88;10.80;;;;;;;-18.90;83.15;98673.94;5034450;28;20139;-84
2021/12/26 03:35:05;;;;;;;20.05;10.07;;;;;;;-18.87;82.92;98676.25;5064983;28;20041;-83
2021/12/26 03:37:31;;;;;;;18.02;9.70;;;;;;;-18.86;83.13;98679.69;5032094;28;20040;-83
2021/12/26 03:40:00;;;;;;;;;;;;;;;-18.90;82.86;98681.78;5016298;28;20091;-83
2021/12/26 03:42:26;;;;;;;19.45;10.45;;;;;;;-18.95;83.23;98682.19;5048579;28;19925;-83
2021/12/26 03:44:53;;;;;;;20.08;9.32;;;;;;;-18.95;83.06;98681.34;5031928;28;20045;-84
2021/12/26 03:47:19;;;;;;;20.75;10.82;;;;;;;-18.98;83.22;98676.41;5064887;28;20396;-83
2021/12/26 03:49:44;;;;;;;19.88;10.15;;;;;;;-19.06;83.03;98679.75;5031623;28;20073;-83
2021/12/26 03:52:10;;;;;;;25.17;11.02;;;;;;;-19.10;83.25;98688.00;5031700;28;20049;-83
2021/12/26 03:54:36;;;;;;;23.30;11.48;;;;;;;-19.13;83.09;98686.50;5065068;28;20043;-82
2021/12/26 03:57:20;;;;;;;23.65;11.02;;;;;;;-19.22;82.93;98689.97;5031922;28;20049;-82
2021/12/26 03:59:47;;;;;;;20.20;9.85;;;;;;;-19.41;82.38;98685.63;5031393;28;20033;-81
2021/12/26 04:02:15;;;;;;;17.77;9.60;;;;;;;-19.52;82.47;98690.97;5036761;28;20051;-83
2021/12/26 04:04:42;;;;;;;18.33;9.37;;;;;;;-19.60;82.62;98694.31;5039281;28;20037;-82
2021/12/26 04:07:09;;;;;;;19.58;9.55;;;;;;;-19.65;82.74;98708.75;5031212;28;20674;-82
2021/12/26 04:09:35;;;;;;;17.63;9.27;;;;;;;-19.63;82.44;98707.63;5031581;28;20107;-82
2021/12/26 04:12:01;;;;;;;21.38;10.05;;;;;;;-19.67;82.54;98721.09;5033684;28;20088;-83
2021/12/26 04:14:27;;;;;;;20.98;10.05;;;;;;;-19.70;82.78;98727.44;5057589;28;20045;-83
2021/12/26 04:16:53;;;;;;;14.52;8.70;;;;;;;-19.73;82.77;98717.28;5043660;28;20131;-83
2021/12/26 04:19:19;;;;;;;18.20;8.20;;;;;;;-19.79;83.00;98727.41;5054394;28;20052;-82
2021/12/26 04:21:45;;;;;;;15.65;8.55;;;;;;;-19.79;82.67;98730.84;5072055;28;20090;-84
2021/12/26 04:24:11;;;;;;;16.42;8.75;;;;;;;-19.79;82.78;98733.47;5072099;28;20197;-84
2021/12/26 04:26:36;;;;;;;14.15;7.97;;;;;;;-19.85;82.91;98742.66;5057819;28;20032;-84
2021/12/26 04:29:03;;;;;;;15.95;7.72;;;;;;;-19.86;82.50;98743.63;5081744;28;20127;-83
2021/12/26 04:31:29;;;;;;;12.48;6.63;;;;;;;-20.02;82.47;98740.72;5085492;28;20414;-83
2021/12/26 04:33:54;;;;;;;11.43;6.20;;;;;;;-20.17;82.09;98737.66;5073522;28;20032;-84
2021/12/26 04:36:21;;;;;;;11.63;5.85;;;;;;;-20.27;82.16;98751.66;5070641;28;20047;-84
2021/12/26 04:38:47;;;;;;;11.57;5.97;;;;;;;-20.32;82.07;98761.66;5074834;28;20131;-84
2021/12/26 04:41:13;;;;;;;10.07;5.45;;;;;;;-20.36;82.17;98771.53;5090102;28;20600;-84
2021/12/26 04:43:45;;;;;;;8.60;4.75;;;;;;;-20.48;81.82;98781.25;5055389;28;20136;-84
2021/12/26 04:46:28;;;;;;;9.27;5.18;;;;;;;-20.57;81.85;98776.84;5053625;28;20036;-83
2021/12/26 04:48:59;;;;;;;12.68;5.22;;;;;;;-20.61;81.40;98777.22;5070222;28;20039;-84
2021/12/26 04:51:24;;;;;;;13.57;5.43;;;;;;;-20.63;81.38;98779.97;5070722;28;20127;-83
2021/12/26 04:53:57;;;;;;;13.05;5.70;;;;;;;-20.64;81.75;98787.94;5065723;28;20032;-83
2021/12/26 04:56:22;;;;;;;10.77;4.30;;;;;;;-20.63;81.79;98784.34;5053577;28;20380;-83
2021/12/26 04:58:48;;;;;;;10.00;4.18;;;;;;;-20.66;81.42;98790.63;5069998;28;20040;-83
2021/12/26 05:01:14;;;;;;;8.10;4.30;;;;;;;-20.71;81.56;98799.81;5070031;28;20040;-83
2021/12/26 05:03:41;;;;;;;5.63;3.30;;;;;;;-20.78;81.51;98799.50;5063443;28;20032;-83
2021/12/26 05:06:06;;;;;;;8.65;3.97;;;;;;;-20.88;81.73;98794.22;5070799;28;20435;-83
2021/12/26 05:08:33;;;;;;;7.47;3.50;;;;;;;-20.98;81.56;98795.13;5071136;28;20039;-83
2021/12/26 05:10:59;;;;;;;5.82;2.70;;;;;;;-21.06;81.05;98801.78;5071440;28;20049;-84
2021/12/26 05:13:24;;;;;;;4.07;2.53;;;;;;;-21.06;81.59;98799.19;5075826;28;20036;-84
2021/12/26 05:15:50;;;;;;;5.43;2.83;;;;;;;-21.12;81.14;98799.72;5052839;28;20040;-84
2021/12/26 05:18:16;;;;;;;6.20;2.78;;;;;;;-21.18;81.44;98807.19;5069567;28;20044;-82
2021/12/26 05:20:44;;;;;;;5.10;2.70;;;;;;;-21.18;81.48;98796.75;5076595;28;20419;-82
2021/12/26 05:23:10;;;;;;;4.10;2.60;;;;;;;-21.19;81.49;98802.94;5074332;28;20047;-82
2021/12/26 05:25:36;;;;;;;4.07;2.47;;;;;;;-21.15;80.92;98805.19;5055834;28;20033;-83
2021/12/26 05:28:02;;;;;;;3.95;2.53;;;;;;;-21.28;80.73;98799.34;5053097;28;20076;-82
2021/12/26 05:30:29;;;;;;;5.20;2.83;;;;;;;-21.43;80.63;98804.03;5052681;28;20117;-83
2021/12/26 05:33:14;;;;;;;4.45;2.88;;;;;;;-21.51;80.53;98822.06;5064331;28;20414;-83
2021/12/26 05:35:41;;;;;;;4.15;2.60;;;;;;;-21.60;80.27;98834.97;5051954;28;20039;-83
2021/12/26 05:38:08;;;;;;;3.80;2.42;;;;;;;-21.66;80.43;98840.69;5068312;28;20044;-83
2021/12/26 05:40:37;;;;;;;3.50;2.45;;;;;;;-21.74;80.46;98846.47;5068267;28;20127;-83
2021/12/26 05:43:03;;;;;;;4.75;2.63;;;;;;;-21.81;79.93;98859.16;5052243;28;20131;-83
2021/12/26 05:45:28;;;;;;;5.25;3.35;;;;;;;-21.82;80.22;98864.47;5087070;28;20036;-83
2021/12/26 05:48:09;;;;;;;6.00;3.85;;;;;;;-21.86;80.46;98860.44;5048209;28;20036;-83
2021/12/26 05:50:34;;;;;;;8.43;4.13;;;;;;;-21.83;80.19;98866.25;5086283;28;20040;-85
2021/12/26 05:53:00;;;;;;;7.35;3.30;;;;;;;-21.85;79.79;98870.75;5066153;28;20044;-84
2021/12/26 05:55:26;;;;;;;4.75;3.05;;;;;;;-21.85;80.62;98878.56;5054272;28;20040;-84
2021/12/26 05:57:52;;;;;;;5.15;2.80;;;;;;;-21.82;80.62;98867.09;5069363;28;20518;-85
2021/12/26 06:00:20;;;;;;;5.55;3.20;;;;;;;-21.88;80.21;98872.75;5035947;28;20524;-85
2021/12/26 06:02:46;;;;;;;5.18;2.95;;;;;;;-21.88;80.20;98872.75;5072265;28;20048;-84
2021/12/26 06:05:12;;;;;;;3.72;2.30;;;;;;;-21.92;80.28;98872.16;5069497;28;20094;-84
2021/12/26 06:07:38;;;;;;;6.20;3.15;;;;;;;-22.03;80.22;98867.00;5052734;28;20033;-85
2021/12/26 06:10:05;;;;;;;3.45;2.60;;;;;;;-22.03;80.23;98885.22;5053126;28;20054;-87
2021/12/26 06:12:32;;;;;;;4.93;2.03;;;;;;;-22.03;79.90;98883.44;5062346;28;20062;-83
2021/12/26 06:14:58;;;;;;;4.63;2.13;;;;;;;-22.07;80.12;98891.59;5063843;28;20074;-82
2021/12/26 06:17:24;;;;;;;5.68;2.55;;;;;;;-22.10;80.55;98895.28;5049527;28;20053;-83
2021/12/26 06:20:05;;;;;;;3.55;2.05;;;;;;;-22.16;79.88;98894.94;5069103;28;20080;-85
2021/12/26 06:22:37;;;;;;;7.82;3.08;;;;;;;-22.20;80.50;98898.72;5036459;28;20128;-85
2021/12/26 06:25:22;;;;;;;4.10;2.70;;;;;;;-22.17;80.48;98898.47;5072280;28;20131;-85
2021/12/26 06:27:55;;;;;;;6.38;2.92;;;;;;;-22.10;80.04;98910.03;5044145;28;20072;-85
2021/12/26 06:30:26;;;;;;;5.05;2.47;;;;;;;-22.05;80.87;98908.72;5079192;28;20426;-85
2021/12/26 06:33:10;;;;;;;4.97;2.97;;;;;;;-21.99;80.24;98910.03;5088756;28;20044;-85
2021/12/26 06:35:56;;;;;;;4.45;2.13;;;;;;;-21.93;80.50;98909.53;5032613;28;20620;-83
2021/12/26 06:38:41;;;;;;;5.68;2.83;;;;;;;-21.93;80.86;98914.75;5045124;28;20422;-84
2021/12/26 06:41:30;;;;;;;4.72;3.00;;;;;;;-21.90;80.73;98922.31;5041930;28;20045;-83
2021/12/26 06:44:14;;;;;;;4.95;2.47;;;;;;;-21.91;80.27;98925.84;5076009;28;20164;-81
2021/12/26 06:46:50;;;;;;;3.63;1.85;;;;;;;-21.92;80.10;98934.59;5058102;28;20414;-86
2021/12/26 06:49:22;;;;;;;3.00;1.70;;;;;;;-21.92;80.61;98937.19;5038550;28;20036;-84
2021/12/26 06:51:49;;;;;;;4.63;2.30;;;;;;;-21.89;80.94;98936.13;5083944;28;20032;-84
2021/12/26 06:54:15;;;;;;;3.92;1.90;;;;;;;-21.81;80.30;98942.41;5075104;28;20047;-84
2021/12/26 06:56:40;;;;;;;5.03;2.65;;;;;;;-21.76;80.45;98947.25;5084267;28;20040;-88
2021/12/26 06:59:07;;;;;;;5.38;2.08;;;;;;;-21.78;80.50;98941.34;5077983;28;20051;-82
2021/12/26 07:01:33;;;;;;;3.80;1.88;;;;;;;-21.79;80.38;98945.72;5089027;28;20029;-80
2021/12/26 07:03:59;;;;;;;3.53;1.83;;;;;;;-21.79;80.73;98956.13;5057285;28;20044;-82
2021/12/26 07:06:26;;;;;;;5.70;2.22;;;;;;;-21.82;80.80;98958.97;5060606;28;20042;-81
2021/12/26 07:08:57;;;;;;;4.68;2.50;;;;;;;-21.80;80.68;98964.88;5057932;28;20043;-82
2021/12/26 07:11:23;;;;;;;7.35;2.70;;;;;;;-21.78;80.50;98967.38;5057088;28;20040;-81
2021/12/26 07:13:49;;;;;;;7.00;2.92;;;;;;;-21.78;80.53;98977.78;5072986;28;20039;-81
2021/12/26 07:16:15;;;;;;;5.30;2.42;;;;;;;-21.82;80.14;98971.97;5051944;28;20095;-81
2021/12/26 07:18:42;;;;;;;7.85;2.83;;;;;;;-21.84;80.08;98994.69;5068228;28;20041;-81
2021/12/26 07:21:11;;;;;;;6.00;2.78;;;;;;;-21.85;80.40;98995.63;5068292;28;20041;-80
2021/12/26 07:23:44;;;;;;;7.25;3.20;;;;;;;-21.85;80.19;99000.84;5052853;28;20406;-81
2021/12/26 07:26:14;;;;;;;6.70;2.45;;;;;;;-21.88;80.22;99011.44;5051502;28;20041;-81
2021/12/26 07:28:40;;;;;;;7.55;3.03;;;;;;;-21.88;79.79;99023.63;5052017;28;20052;-81
2021/12/26 07:31:22;;;;;;;7.75;3.28;;;;;;;-21.87;79.71;99015.72;5050057;28;20065;-81
2021/12/26 07:33:52;;;;;;;4.63;2.70;;;;;;;-21.84;79.61;99017.28;5051471;28;20033;-81
2021/12/26 07:36:18;;;;;;;8.00;3.38;;;;;;;-21.81;80.13;99006.63;5068038;28;20407;-82
2021/12/26 07:39:03;;;;;;;7.97;3.50;;;;;;;-21.70;79.49;99007.44;5052480;28;20047;-80
2021/12/26 07:41:31;;;;;;;;;;;;;;;-21.57;79.38;99022.13;5052299;28;20098;-80
2021/12/26 07:43:57;;;;;;;8.85;3.28;;;;;;;-21.55;79.16;99015.84;5068192;28;20490;-81
2021/12/26 07:46:31;;;;;;;5.68;2.53;;;;;;;-21.49;79.33;99017.16;5051614;28;20683;-81
2021/12/26 07:49:02;;;;;;;4.78;2.35;;;;;;;-21.47;79.48;99021.31;5068121;28;20437;-80
2021/12/26 07:51:48;;;;;;;5.22;2.35;;;;;;;-21.45;79.08;99006.38;5039007;28;20033;-80
2021/12/26 07:54:32;;;;;;;7.63;2.20;;;;;;;-21.24;79.02;99008.25;5037294;28;20090;-81
2021/12/26 07:57:16;;;;;;;5.15;2.30;;;;;;;-20.96;78.90;99007.69;5051173;28;20076;-80
2021/12/26 08:00:00;;;;;;;5.32;2.03;;;;;;;-20.88;78.64;99007.06;5040880;28;20179;-80
2021/12/26 08:02:45;;;;;;;4.13;2.03;;;;;;;-20.94;78.75;99012.78;5065277;28;20415;-80
2021/12/26 08:05:29;;;;;;;6.47;2.45;;;;;;;-20.92;78.20;99021.31;5051580;28;20043;-81
2021/12/26 08:08:12;;;;;;;10.07;2.97;;;;;;;-20.82;78.61;99030.06;5067303;28;20033;-81
2021/12/26 08:10:38;;;;;;;4.22;2.15;;;;;;;-20.78;78.99;99031.47;5067139;28;20094;-81
2021/12/26 08:13:04;;;;;;;2.88;1.75;;;;;;;-20.76;79.17;99025.16;5050843;28;20047;-81
2021/12/26 08:15:30;;;;;;;6.85;2.25;;;;;;;-20.67;79.13;99031.41;5050806;28;20045;-81
2021/12/26 08:17:56;;;;;;;5.63;2.15;;;;;;;-20.66;78.93;99038.28;5069685;28;20045;-82
2021/12/26 08:20:21;;;;;;;3.47;1.80;;;;;;;-20.60;79.65;99040.41;5072198;28;20044;-82
2021/12/26 08:22:47;;;;;;;3.13;1.95;;;;;;;-20.55;79.95;99037.41;5071823;28;20041;-81
2021/12/26 08:25:13;;;;;;;4.93;2.33;;;;;;;-20.57;79.74;99050.56;5071979;28;20044;-81
2021/12/26 08:27:39;;;;;;;5.43;1.98;;;;;;;-20.59;79.02;99041.22;5067513;28;20040;-81
2021/12/26 08:30:06;;;;;;;4.30;2.05;;;;;;;-20.60;78.89;99044.78;5071370;28;20032;-80
2021/12/26 08:32:34;;;;;;;4.07;2.45;;;;;;;-20.57;79.23;99045.38;5053630;28;20139;-82
2021/12/26 08:35:00;;;;;;;5.22;2.58;;;;;;;-20.58;79.08;99056.75;5071661;28;20041;-81
2021/12/26 08:37:27;;;;;;;7.22;2.63;;;;;;;-20.52;78.98;99056.25;5053331;28;20449;-81
2021/12/26 08:39:53;;;;;;;3.58;2.10;;;;;;;-20.49;79.23;99058.59;5071640;28;20055;-81
2021/12/26 08:42:19;;;;;;;5.95;2.13;;;;;;;-20.50;78.77;99072.59;5053571;28;20040;-81
2021/12/26 08:44:45;;;;;;;6.03;2.60;;;;;;;-20.48;78.59;99073.28;5051927;28;20513;-81
2021/12/26 08:47:11;;;;;;;4.13;2.30;;;;;;;-20.46;78.71;99067.97;5086505;28;20127;-81
2021/12/26 08:49:37;;;;;;;5.22;2.50;;;;;;;-20.42;78.71;99071.97;5052827;28;20040;-81
2021/12/26 08:52:05;;;;;;;4.15;2.53;;;;;;;-20.44;79.00;99076.50;5071269;28;20044;-81
2021/12/26 08:54:33;;;;;;;3.70;2.20;;;;;;;-20.41;78.79;99094.50;5071077;28;20044;-81
2021/12/26 08:57:00;;;;;;;2.55;1.67;;;;;;;-20.37;78.98;99084.63;5071607;28;20075;-82
2021/12/26 08:59:30;;;;;;;2.15;1.55;;;;;;;-20.31;79.13;99091.94;5054531;28;20044;-81
2021/12/26 09:02:02;;;;;;;4.53;2.30;;;;;;;-20.29;78.89;99092.66;5053589;28;20064;-82
2021/12/26 09:04:28;;;;;;;4.80;2.10;;;;;;;-20.25;78.78;99104.50;5053364;28;20046;-83
2021/12/26 09:06:53;;;;;;;6.28;1.92;;;;;;;-20.21;78.90;99095.47;5053152;28;20036;-80
2021/12/26 09:09:19;;;;;;;5.85;2.30;;;;;;;-20.14;79.31;99091.38;5052989;28;20045;-81
2021/12/26 09:11:45;;;;;;;4.22;1.88;;;;;;;-20.08;79.37;99093.50;5070706;28;20135;-80
2021/12/26 09:14:11;;;;;;;4.10;2.20;;;;;;;-20.08;79.10;99088.28;5070814;28;20040;-81
2021/12/26 09:16:36;;;;;;;2.63;1.90;;;;;;;-20.06;79.14;99101.22;5068668;28;20049;-81
2021/12/26 09:19:04;;;;;;;3.63;2.35;;;;;;;-20.05;79.03;99103.69;5070706;28;20040;-80
2021/12/26 09:21:30;;;;;;;4.50;1.67;;;;;;;-20.01;78.74;99102.47;5070711;28;20413;-82
2021/12/26 09:23:56;;;;;;;3.03;1.40;;;;;;;-19.96;78.73;99109.94;5069677;28;20060;-81
2021/12/26 09:26:21;;;;;;;3.70;1.70;;;;;;;-19.90;78.75;99106.84;5052409;28;20071;-81
2021/12/26 09:28:48;;;;;;;5.78;2.28;;;;;;;-19.89;78.77;99104.09;5052927;28;20044;-79
2021/12/26 09:31:14;;;;;;;4.45;1.88;;;;;;;-19.83;78.91;99107.97;5052003;28;20040;-81
2021/12/26 09:33:40;;;;;;;2.95;1.63;;;;;;;-19.79;79.31;99103.31;5070063;28;20399;-80
2021/12/26 09:36:05;;;;;;;5.03;2.03;;;;;;;-19.74;79.01;99103.78;5073715;28;20036;-78
2021/12/26 09:38:31;;;;;;;4.10;2.47;;;;;;;-19.67;79.24;99120.59;5070746;28;20105;-80
2021/12/26 09:40:57;;;;;;;4.18;2.05;;;;;;;-19.63;79.12;99111.53;5070800;28;20051;-80
2021/12/26 09:43:23;;;;;;;3.85;1.58;;;;;;;-19.57;79.40;99111.03;5070657;28;20055;-77
2021/12/26 09:45:49;;;;;;;7.72;2.38;;;;;;;-19.50;79.10;99106.09;5070672;28;20040;-79
2021/12/26 09:48:14;;;;;;;5.53;2.28;;;;;;;-19.48;79.15;99112.84;5070383;28;20101;-79
2021/12/26 09:50:40;;;;;;;2.97;1.65;;;;;;;-19.49;79.08;99113.78;5069646;28;20036;-78
2021/12/26 09:53:06;;;;;;;4.30;1.73;;;;;;;-19.43;79.27;99112.44;5070535;28;20045;-79
2021/12/26 09:55:32;;;;;;;5.63;2.35;;;;;;;-19.38;78.95;99123.34;5070408;28;20115;-79
2021/12/26 09:57:57;;;;;;;4.57;2.30;;;;;;;-19.35;79.17;99129.13;5069500;28;20051;-80
2021/12/26 10:00:23;;;;;;;5.05;2.28;;;;;;;-19.33;79.00;99121.16;5069806;28;20050;-79
2021/12/26 10:03:19;;;;;;;4.20;2.05;;;;;;;-19.28;79.24;99113.75;5053071;28;20040;-80
2021/12/26 10:06:03;;;;;;;2.90;1.65;;;;;;;-19.25;79.16;99122.19;5055469;28;20063;-80
2021/12/26 10:08:31;;;;;;;4.68;2.63;;;;;;;-19.17;79.74;99123.31;5070117;28;20047;-79
2021/12/26 10:11:12;;;;;;;2.90;2.03;;;;;;;-19.17;79.56;99112.88;5069262;28;20142;-79
2021/12/26 10:13:45;;;;;;;2.70;1.75;;;;;;;-19.13;79.94;99117.69;5070414;28;20040;-78
2021/12/26 10:16:12;;;;;;;4.18;1.92;;;;;;;-19.08;79.49;99127.78;5070003;28;20083;-78
2021/12/26 10:18:40;;;;;;;4.53;2.53;;;;;;;-19.02;79.78;99132.47;5071781;28;20044;-77
2021/12/26 10:21:23;;;;;;;4.80;2.15;;;;;;;-18.97;80.00;99123.25;5039625;28;20036;-77
2021/12/26 10:23:50;;;;;;;4.07;1.80;;;;;;;-18.92;79.82;99130.69;5050182;28;20495;-78
2021/12/26 10:26:24;;;;;;;5.95;1.98;;;;;;;-18.87;79.71;99130.34;5051207;28;20498;-78
2021/12/26 10:29:06;;;;;;;3.03;1.52;;;;;;;-18.85;79.86;99137.09;5072061;28;20059;-78
2021/12/26 10:31:32;;;;;;;4.45;2.38;;;;;;;-18.82;79.53;99139.44;5073818;28;20055;-79
2021/12/26 10:33:58;;;;;;;2.83;1.92;;;;;;;-18.82;79.94;99134.19;5059378;28;20498;-78
2021/12/26 10:36:23;;;;;;;3.42;2.05;;;;;;;-18.79;79.83;99136.53;5072784;28;20064;-78
2021/12/26 10:39:08;;;;;;;4.57;2.28;;;;;;;-18.77;79.14;99147.69;5058406;28;20125;-77
2021/12/26 10:41:39;;;;;;;3.22;2.00;;;;;;;-18.73;79.57;99141.25;5075429;28;20475;-77
2021/12/26 10:44:05;;;;;;;9.93;2.45;;;;;;;-18.70;79.68;99142.78;5074195;28;20067;-79
2021/12/26 10:46:31;;;;;;;6.20;2.85;;;;;;;-18.69;79.64;99147.88;5073210;28;20075;-78
2021/12/26 10:49:33;;;;;;;4.60;2.53;;;;;;;-18.66;80.15;99152.84;5074085;28;20063;-78
2021/12/26 10:52:00;;;;;;;4.35;2.17;;;;;;;-18.64;79.63;99148.28;5073810;28;20025;-77
2021/12/26 10:54:31;;;;;;;3.90;2.08;;;;;;;-18.50;79.96;99152.31;5073913;28;20138;-79
2021/12/26 10:57:10;;;;;;;4.15;2.05;;;;;;;-17.45;80.22;99149.88;5073699;28;20135;-78
2021/12/26 10:59:38;;;;;;;2.85;2.08;;;;;;;-17.53;80.32;99158.41;5039262;28;20043;-78
2021/12/26 11:02:04;;;;;;;4.28;2.15;;;;;;;-17.80;80.24;99161.78;5076844;28;20032;-77
2021/12/26 11:04:30;;;;;;;4.68;2.50;;;;;;;-17.95;80.39;99164.94;5074891;28;20065;-79
2021/12/26 11:07:08;;;;;;;3.50;1.80;;;;;;;-18.02;79.72;99173.34;5094276;28;20036;-79
2021/12/26 11:09:35;;;;;;;3.60;1.90;;;;;;;-18.07;79.58;99172.91;5072845;28;20028;-76
2021/12/26 11:12:07;;;;;;;3.28;2.05;;;;;;;-18.10;79.61;99170.56;5073886;28;20073;-77
2021/12/26 11:14:58;;;;;;;4.65;1.80;;;;;;;-18.16;79.33;99171.13;5072093;28;20067;-79
2021/12/26 11:17:33;;;;;;;4.80;2.17;;;;;;;-18.15;79.42;99178.00;5057498;28;20094;-76
2021/12/26 11:19:59;;;;;;;5.28;2.50;;;;;;;-18.19;79.72;99178.41;5073113;28;20480;-79
2021/12/26 11:22:25;;;;;;;8.10;2.10;;;;;;;-18.23;79.54;99188.31;5072851;28;20036;-80
2021/12/26 11:24:57;;;;;;;8.13;2.95;;;;;;;-18.23;79.54;99193.53;5058041;28;20041;-83
2021/12/26 11:27:24;;;;;;;3.53;2.47;;;;;;;-18.20;79.67;99190.69;5087449;28;20048;-81
2021/12/26 11:29:49;;;;;;;4.82;2.05;;;;;;;-18.22;79.76;99194.38;5073488;28;20051;-80
2021/12/26 11:32:17;;;;;;;3.70;2.10;;;;;;;-18.20;79.90;99193.28;5042771;28;20036;-80
2021/12/26 11:34:45;;;;;;;3.80;2.40;;;;;;;-18.21;79.49;99194.25;5075829;28;20455;-81